createdAt,value
2018-04-14T00:00:18.118Z,14.11
2018-04-14T00:01:17.878Z,13.99
2018-04-14T00:02:17.904Z,14.08
2018-04-14T00:03:17.914Z,13.93
2018-04-14T00:04:18.189Z,13.99
2018-04-14T00:05:18.257Z,13.97
2018-04-14T00:06:18.254Z,13.95
2018-04-14T00:07:18.255Z,13.93
2018-04-14T00:08:18.032Z,13.92
2018-04-14T00:09:18.294Z,13.79
2018-04-14T00:10:18.319Z,13.81
2018-04-14T00:11:18.436Z,13.89
2018-04-14T00:12:18.403Z,13.87
2018-04-14T00:13:18.378Z,13.85
2018-04-14T00:14:18.395Z,13.9
2018-04-14T00:15:18.155Z,14
2018-04-14T00:16:17.922Z,13.89
2018-04-14T00:17:18.200Z,13.89
2018-04-14T00:18:18.470Z,13.89
2018-04-14T00:19:18.487Z,13.83
2018-04-14T00:20:18.561Z,13.81
2018-04-14T00:21:18.533Z,13.89
2018-04-14T00:22:18.550Z,13.93
2018-04-14T00:23:18.320Z,13.92
2018-04-14T00:24:18.592Z,13.86
2018-04-14T00:25:18.643Z,13.79
2018-04-14T00:26:18.376Z,13.77
2018-04-14T00:27:18.405Z,13.62
2018-04-14T00:28:18.423Z,13.54
2018-04-14T00:29:18.695Z,13.57
2018-04-14T00:30:18.927Z,13.57
2018-04-14T00:31:18.737Z,13.49
2018-04-14T00:32:18.503Z,13.33
2018-04-14T00:33:18.769Z,13.35
2018-04-14T00:34:18.793Z,13.38
2018-04-14T00:35:18.859Z,13.3
2018-04-14T00:36:18.829Z,13.2
2018-04-14T00:37:18.846Z,13.2
2018-04-14T00:38:18.874Z,13.18
2018-04-14T00:39:18.637Z,13.16
2018-04-14T00:40:18.907Z,13.22
2018-04-14T00:41:18.942Z,13.12
2018-04-14T00:42:18.701Z,13.09
2018-04-14T00:43:18.714Z,13.01
2018-04-14T00:44:18.991Z,13.05
2018-04-14T00:45:18.753Z,12.97
2018-04-14T00:46:18.773Z,13.01
2018-04-14T00:47:18.785Z,13
2018-04-14T00:48:18.805Z,12.91
2018-04-14T00:49:18.826Z,12.95
2018-04-14T00:50:19.149Z,13.04
2018-04-14T00:51:19.119Z,13.03
2018-04-14T00:52:19.138Z,13.01
2018-04-14T00:53:19.155Z,12.94
2018-04-14T00:54:19.175Z,13.04
2018-04-14T00:55:19.197Z,13.01
2018-04-14T00:56:19.225Z,12.98
2018-04-14T00:57:19.235Z,12.83
2018-04-14T00:58:19.272Z,12.75
2018-04-14T00:59:18.775Z,12.79
2018-04-14T01:00:19.304Z,12.73
2018-04-14T01:01:19.355Z,12.68
2018-04-14T01:02:19.342Z,12.79
2018-04-14T01:03:19.359Z,12.78
2018-04-14T01:04:19.386Z,12.8
2018-04-14T01:05:19.206Z,12.72
2018-04-14T01:06:19.422Z,12.76
2018-04-14T01:07:19.438Z,12.8
2018-04-14T01:08:19.206Z,12.65
2018-04-14T01:09:19.239Z,12.49
2018-04-14T01:10:19.503Z,12.6
2018-04-14T01:11:19.521Z,12.61
2018-04-14T01:12:19.293Z,12.67
2018-04-14T01:13:19.556Z,12.61
2018-04-14T01:14:19.327Z,12.5
2018-04-14T01:15:19.343Z,12.5
2018-04-14T01:16:19.366Z,12.6
2018-04-14T01:17:19.641Z,12.55
2018-04-14T01:18:19.667Z,12.47
2018-04-14T01:19:19.690Z,12.49
2018-04-14T01:20:19.512Z,12.46
2018-04-14T01:21:19.708Z,12.5
2018-04-14T01:22:19.733Z,12.47
2018-04-14T01:23:19.756Z,12.43
2018-04-14T01:24:19.772Z,12.31
2018-04-14T01:25:19.826Z,12.39
2018-04-14T01:26:19.882Z,12.32
2018-04-14T01:27:19.834Z,12.28
2018-04-14T01:28:19.853Z,12.28
2018-04-14T01:29:19.883Z,12.29
2018-04-14T01:30:19.622Z,12.25
2018-04-14T01:31:19.677Z,12.22
2018-04-14T01:32:19.917Z,12.22
2018-04-14T01:33:19.686Z,12.09
2018-04-14T01:34:19.958Z,12.17
2018-04-14T01:35:20.177Z,12.27
2018-04-14T01:36:19.999Z,12.24
2018-04-14T01:37:20.015Z,12.2
2018-04-14T01:38:20.030Z,12.18
2018-04-14T01:39:20.053Z,12.2
2018-04-14T01:40:20.083Z,12.09
2018-04-14T01:41:20.109Z,12.13
2018-04-14T01:42:20.117Z,12.18
2018-04-14T01:43:19.886Z,12.09
2018-04-14T01:44:20.169Z,12.06
2018-04-14T01:45:19.927Z,12.15
2018-04-14T01:46:20.200Z,12.06
2018-04-14T01:47:19.982Z,12.15
2018-04-14T01:48:19.982Z,12.09
2018-04-14T01:49:20.261Z,12.1
2018-04-14T01:50:20.080Z,12.12
2018-04-14T01:51:20.296Z,12.09
2018-04-14T01:52:20.308Z,12.12
2018-04-14T01:53:20.330Z,11.99
2018-04-14T01:54:20.097Z,11.95
2018-04-14T01:55:20.113Z,12.06
2018-04-14T01:56:20.396Z,12.03
2018-04-14T01:57:20.161Z,12.09
2018-04-14T01:58:20.427Z,12.09
2018-04-14T01:59:20.452Z,12.12
2018-04-14T02:00:20.472Z,12.04
2018-04-14T02:01:20.235Z,11.99
2018-04-14T02:02:20.013Z,12.04
2018-04-14T02:03:20.518Z,12
2018-04-14T02:04:20.288Z,11.97
2018-04-14T02:05:20.617Z,12.02
2018-04-14T02:06:20.578Z,11.99
2018-04-14T02:07:20.601Z,11.94
2018-04-14T02:08:20.617Z,11.95
2018-04-14T02:09:20.637Z,12.02
2018-04-14T02:10:20.401Z,12.02
2018-04-14T02:11:20.682Z,12.1
2018-04-14T02:12:20.444Z,12.2
2018-04-14T02:13:20.461Z,12.18
2018-04-14T02:14:20.733Z,12.18
2018-04-14T02:15:20.515Z,12.2
2018-04-14T02:16:20.516Z,12.27
2018-04-14T02:17:20.538Z,12.07
2018-04-14T02:18:20.836Z,12.12
2018-04-14T02:19:20.839Z,12.02
2018-04-14T02:20:20.645Z,12.06
2018-04-14T02:21:20.357Z,12.04
2018-04-14T02:22:20.882Z,12.06
2018-04-14T02:23:20.902Z,11.95
2018-04-14T02:24:20.933Z,11.99
2018-04-14T02:25:20.940Z,11.99
2018-04-14T02:26:20.964Z,12.02
2018-04-14T02:27:20.983Z,12.1
2018-04-14T02:28:21.006Z,12.09
2018-04-14T02:29:20.769Z,12.07
2018-04-14T02:30:21.040Z,12.03
2018-04-14T02:31:21.059Z,12.2
2018-04-14T02:32:21.088Z,12.25
2018-04-14T02:33:20.592Z,12.25
2018-04-14T02:34:20.885Z,12.28
2018-04-14T02:35:20.937Z,12.13
2018-04-14T02:36:20.901Z,12.28
2018-04-14T02:37:20.927Z,12.29
2018-04-14T02:38:21.247Z,12.37
2018-04-14T02:39:21.222Z,12.25
2018-04-14T02:40:21.230Z,12.35
2018-04-14T02:41:21.255Z,12.35
2018-04-14T02:42:21.016Z,12.42
2018-04-14T02:43:21.038Z,12.43
2018-04-14T02:44:21.316Z,12.42
2018-04-14T02:45:21.073Z,12.43
2018-04-14T02:46:21.343Z,12.39
2018-04-14T02:47:21.370Z,12.35
2018-04-14T02:48:21.384Z,12.27
2018-04-14T02:49:21.418Z,12.24
2018-04-14T02:50:21.473Z,12.12
2018-04-14T02:51:21.182Z,12.12
2018-04-14T02:52:21.556Z,12.07
2018-04-14T02:53:21.475Z,12.02
2018-04-14T02:54:21.242Z,11.83
2018-04-14T02:55:21.516Z,11.77
2018-04-14T02:56:21.530Z,11.73
2018-04-14T02:57:21.550Z,11.81
2018-04-14T02:58:21.575Z,11.81
2018-04-14T02:59:21.599Z,11.81
2018-04-14T03:00:21.368Z,11.84
2018-04-14T03:01:21.121Z,11.86
2018-04-14T03:02:21.649Z,11.78
2018-04-14T03:03:21.673Z,11.72
2018-04-14T03:04:21.733Z,11.75
2018-04-14T03:05:21.498Z,11.72
2018-04-14T03:06:21.723Z,11.81
2018-04-14T03:07:21.741Z,11.81
2018-04-14T03:08:21.506Z,11.83
2018-04-14T03:09:21.526Z,11.77
2018-04-14T03:10:21.962Z,11.87
2018-04-14T03:11:21.822Z,11.77
2018-04-14T03:12:21.842Z,11.81
2018-04-14T03:13:21.889Z,11.75
2018-04-14T03:14:21.620Z,11.8
2018-04-14T03:15:21.894Z,11.83
2018-04-14T03:16:21.914Z,11.77
2018-04-14T03:17:21.722Z,11.75
2018-04-14T03:18:21.689Z,11.62
2018-04-14T03:19:21.707Z,11.65
2018-04-14T03:20:22.030Z,11.62
2018-04-14T03:21:22.012Z,11.54
2018-04-14T03:22:22.017Z,11.44
2018-04-14T03:23:21.784Z,11.37
2018-04-14T03:24:21.804Z,11.57
2018-04-14T03:25:21.821Z,11.54
2018-04-14T03:26:22.096Z,11.45
2018-04-14T03:27:22.110Z,11.54
2018-04-14T03:28:22.138Z,11.62
2018-04-14T03:29:22.164Z,11.6
2018-04-14T03:30:22.174Z,11.54
2018-04-14T03:31:22.364Z,11.59
2018-04-14T03:32:21.964Z,11.52
2018-04-14T03:33:22.231Z,11.52
2018-04-14T03:34:22.276Z,11.51
2018-04-14T03:35:22.319Z,11.6
2018-04-14T03:36:22.032Z,11.54
2018-04-14T03:37:22.316Z,11.55
2018-04-14T03:38:22.327Z,11.6
2018-04-14T03:39:22.086Z,11.63
2018-04-14T03:40:22.361Z,11.59
2018-04-14T03:41:21.872Z,11.55
2018-04-14T03:42:22.149Z,11.68
2018-04-14T03:43:22.419Z,11.66
2018-04-14T03:44:22.182Z,11.68
2018-04-14T03:45:22.456Z,11.69
2018-04-14T03:46:22.475Z,11.59
2018-04-14T03:47:21.995Z,11.6
2018-04-14T03:48:22.512Z,11.62
2018-04-14T03:49:22.531Z,11.59
2018-04-14T03:50:22.600Z,11.52
2018-04-14T03:51:22.313Z,11.62
2018-04-14T03:52:22.584Z,11.63
2018-04-14T03:53:22.601Z,11.59
2018-04-14T03:54:22.365Z,11.45
2018-04-14T03:55:22.639Z,11.54
2018-04-14T03:56:22.656Z,11.59
2018-04-14T03:57:22.677Z,11.51
2018-04-14T03:58:22.700Z,11.48
2018-04-14T03:59:22.719Z,11.59
2018-04-14T04:00:22.725Z,11.57
2018-04-14T04:01:22.746Z,11.52
2018-04-14T04:02:22.762Z,11.47
2018-04-14T04:03:22.540Z,11.54
2018-04-14T04:04:22.811Z,11.51
2018-04-14T04:05:22.883Z,11.43
2018-04-14T04:06:22.851Z,11.4
2018-04-14T04:07:22.865Z,11.4
2018-04-14T04:08:22.631Z,11.51
2018-04-14T04:09:22.651Z,11.52
2018-04-14T04:10:22.922Z,11.55
2018-04-14T04:11:22.929Z,11.48
2018-04-14T04:12:22.694Z,11.65
2018-04-14T04:13:22.718Z,11.47
2018-04-14T04:14:22.732Z,11.54
2018-04-14T04:15:22.747Z,11.57
2018-04-14T04:16:23.019Z,11.47
2018-04-14T04:17:22.810Z,11.5
2018-04-14T04:18:22.806Z,11.51
2018-04-14T04:19:22.823Z,11.41
2018-04-14T04:20:23.200Z,11.35
2018-04-14T04:21:23.123Z,11.22
2018-04-14T04:22:22.889Z,11.14
2018-04-14T04:23:23.221Z,11.05
2018-04-14T04:24:23.185Z,11.08
2018-04-14T04:25:23.205Z,11.05
2018-04-14T04:26:23.226Z,11.07
2018-04-14T04:27:23.236Z,11.07
2018-04-14T04:28:23.263Z,11.07
2018-04-14T04:29:23.286Z,11.07
2018-04-14T04:30:23.292Z,11.08
2018-04-14T04:31:23.317Z,11.04
2018-04-14T04:32:23.329Z,10.94
2018-04-14T04:33:23.351Z,11
2018-04-14T04:34:23.363Z,11.04
2018-04-14T04:35:23.198Z,11.08
2018-04-14T04:36:23.404Z,10.93
2018-04-14T04:37:23.428Z,10.92
2018-04-14T04:38:23.186Z,11.04
2018-04-14T04:39:23.459Z,11.07
2018-04-14T04:40:23.477Z,11.11
2018-04-14T04:41:23.495Z,11.04
2018-04-14T04:42:23.265Z,10.96
2018-04-14T04:43:23.542Z,11.04
2018-04-14T04:44:23.296Z,11.08
2018-04-14T04:45:23.578Z,11.18
2018-04-14T04:46:23.589Z,11.33
2018-04-14T04:47:23.608Z,11.26
2018-04-14T04:48:23.369Z,11.27
2018-04-14T04:49:23.643Z,11.4
2018-04-14T04:50:23.713Z,11.41
2018-04-14T04:51:23.427Z,11.41
2018-04-14T04:52:23.699Z,11.35
2018-04-14T04:53:23.713Z,11.33
2018-04-14T04:54:23.484Z,11.35
2018-04-14T04:55:23.503Z,11.33
2018-04-14T04:56:23.774Z,11.52
2018-04-14T04:57:23.547Z,11.45
2018-04-14T04:58:23.811Z,11.55
2018-04-14T04:59:23.824Z,11.57
2018-04-14T05:00:23.593Z,11.57
2018-04-14T05:01:23.617Z,11.54
2018-04-14T05:02:23.630Z,11.45
2018-04-14T05:03:23.901Z,11.6
2018-04-14T05:04:23.921Z,11.62
2018-04-14T05:05:23.988Z,11.65
2018-04-14T05:06:23.702Z,11.78
2018-04-14T05:07:23.720Z,11.88
2018-04-14T05:08:23.995Z,11.88
2018-04-14T05:09:24.016Z,11.95
2018-04-14T05:10:23.784Z,11.9
2018-04-14T05:11:23.797Z,12.03
2018-04-14T05:12:24.073Z,12
2018-04-14T05:13:23.884Z,11.95
2018-04-14T05:14:23.852Z,11.95
2018-04-14T05:15:24.130Z,12.03
2018-04-14T05:16:24.168Z,11.94
2018-04-14T05:17:24.167Z,11.84
2018-04-14T05:18:24.191Z,11.91
2018-04-14T05:19:23.947Z,12.02
2018-04-14T05:20:24.270Z,11.86
2018-04-14T05:21:24.241Z,11.97
2018-04-14T05:22:24.258Z,11.95
2018-04-14T05:23:24.023Z,12.03
2018-04-14T05:24:24.291Z,12.1
2018-04-14T05:25:24.106Z,12.03
2018-04-14T05:26:24.080Z,12.1
2018-04-14T05:27:24.353Z,12.12
2018-04-14T05:28:24.373Z,12.1
2018-04-14T05:29:24.136Z,12.12
2018-04-14T05:30:24.406Z,12.07
2018-04-14T05:31:24.191Z,12.17
2018-04-14T05:32:24.195Z,12.17
2018-04-14T05:33:24.466Z,12.25
2018-04-14T05:34:24.232Z,12.2
2018-04-14T05:35:24.300Z,12.15
2018-04-14T05:36:24.527Z,12.27
2018-04-14T05:37:24.606Z,12.32
2018-04-14T05:38:24.567Z,12.29
2018-04-14T05:39:24.332Z,12.29
2018-04-14T05:40:24.594Z,12.27
2018-04-14T05:41:24.621Z,12.28
2018-04-14T05:42:24.633Z,12.17
2018-04-14T05:43:24.651Z,12.18
2018-04-14T05:44:24.704Z,12.18
2018-04-14T05:45:24.440Z,12.22
2018-04-14T05:46:24.728Z,12.2
2018-04-14T05:47:24.225Z,12.24
2018-04-14T05:48:24.749Z,12.15
2018-04-14T05:49:24.772Z,12.18
2018-04-14T05:50:24.581Z,12.18
2018-04-14T05:51:24.808Z,12.22
2018-04-14T05:52:24.838Z,12.21
2018-04-14T05:53:24.846Z,12.28
2018-04-14T05:54:24.860Z,12.21
2018-04-14T05:55:24.882Z,12.2
2018-04-14T05:56:24.908Z,12.27
2018-04-14T05:57:24.923Z,12.31
2018-04-14T05:58:24.944Z,12.45
2018-04-14T05:59:24.960Z,12.35
2018-04-14T06:00:24.724Z,12.37
2018-04-14T06:01:24.752Z,12.43
2018-04-14T06:02:24.763Z,12.57
2018-04-14T06:03:25.037Z,12.62
2018-04-14T06:04:24.806Z,12.61
2018-04-14T06:05:25.127Z,12.64
2018-04-14T06:06:25.096Z,12.64
2018-04-14T06:07:25.114Z,12.58
2018-04-14T06:08:24.877Z,12.79
2018-04-14T06:09:25.157Z,12.82
2018-04-14T06:10:24.925Z,12.8
2018-04-14T06:11:25.200Z,12.9
2018-04-14T06:12:24.966Z,12.98
2018-04-14T06:13:25.228Z,12.98
2018-04-14T06:14:24.992Z,12.9
2018-04-14T06:15:25.267Z,12.91
2018-04-14T06:16:25.293Z,12.94
2018-04-14T06:17:25.312Z,12.86
2018-04-14T06:18:25.332Z,12.97
2018-04-14T06:19:25.098Z,12.91
2018-04-14T06:20:25.422Z,13.01
2018-04-14T06:21:25.143Z,13.03
2018-04-14T06:22:25.243Z,13.03
2018-04-14T06:23:25.172Z,13.28
2018-04-14T06:24:25.449Z,13.44
2018-04-14T06:25:25.214Z,13.52
2018-04-14T06:26:25.487Z,13.56
2018-04-14T06:27:25.505Z,13.56
2018-04-14T06:28:25.272Z,13.7
2018-04-14T06:29:25.553Z,13.74
2018-04-14T06:30:25.619Z,13.81
2018-04-14T06:31:25.586Z,13.86
2018-04-14T06:32:25.613Z,13.87
2018-04-14T06:33:25.373Z,13.89
2018-04-14T06:34:25.655Z,14.05
2018-04-14T06:35:25.778Z,14.08
2018-04-14T06:36:25.437Z,13.95
2018-04-14T06:37:25.456Z,14.1
2018-04-14T06:38:25.735Z,14.04
2018-04-14T06:39:25.536Z,14.03
2018-04-14T06:40:25.768Z,14.1
2018-04-14T06:41:25.786Z,14.22
2018-04-14T06:42:25.554Z,14.18
2018-04-14T06:43:25.574Z,14.3
2018-04-14T06:44:25.851Z,14.29
2018-04-14T06:45:25.712Z,14.32
2018-04-14T06:46:25.991Z,14.36
2018-04-14T06:47:25.909Z,14.4
2018-04-14T06:48:25.930Z,14.32
2018-04-14T06:49:25.691Z,14.48
2018-04-14T06:50:25.765Z,14.55
2018-04-14T06:51:25.732Z,14.53
2018-04-14T06:52:25.748Z,14.59
2018-04-14T06:53:26.027Z,14.62
2018-04-14T06:54:25.796Z,14.69
2018-04-14T06:55:26.068Z,14.7
2018-04-14T06:56:26.087Z,14.68
2018-04-14T06:57:26.112Z,14.86
2018-04-14T06:58:25.878Z,14.88
2018-04-14T06:59:26.148Z,14.82
2018-04-14T07:00:26.165Z,14.88
2018-04-14T07:01:26.195Z,14.94
2018-04-14T07:02:25.956Z,14.97
2018-04-14T07:03:25.983Z,14.88
2018-04-14T07:04:26.338Z,14.88
2018-04-14T07:05:26.069Z,15
2018-04-14T07:06:26.292Z,15.09
2018-04-14T07:07:26.314Z,15.14
2018-04-14T07:08:26.341Z,15.25
2018-04-14T07:09:25.853Z,15.36
2018-04-14T07:10:25.868Z,15.47
2018-04-14T07:11:26.399Z,15.46
2018-04-14T07:12:26.417Z,15.57
2018-04-14T07:13:26.435Z,15.59
2018-04-14T07:14:26.463Z,15.65
2018-04-14T07:15:26.478Z,15.76
2018-04-14T07:16:26.244Z,15.7
2018-04-14T07:17:26.270Z,15.88
2018-04-14T07:18:26.290Z,15.91
2018-04-14T07:19:26.568Z,15.97
2018-04-14T07:20:26.129Z,15.95
2018-04-14T07:21:26.353Z,15.97
2018-04-14T07:22:26.636Z,16.21
2018-04-14T07:23:26.397Z,16.21
2018-04-14T07:24:26.421Z,16.28
2018-04-14T07:25:26.441Z,16.35
2018-04-14T07:26:26.452Z,16.42
2018-04-14T07:27:26.737Z,16.43
2018-04-14T07:28:26.498Z,16.42
2018-04-14T07:29:26.370Z,16.6
2018-04-14T07:30:26.541Z,16.51
2018-04-14T07:31:26.821Z,16.61
2018-04-14T07:32:26.985Z,16.64
2018-04-14T07:33:26.864Z,16.54
2018-04-14T07:34:26.884Z,16.57
2018-04-14T07:35:26.401Z,16.58
2018-04-14T07:36:26.420Z,16.64
2018-04-14T07:37:26.444Z,16.58
2018-04-14T07:38:26.964Z,16.71
2018-04-14T07:39:27.035Z,16.74
2018-04-14T07:40:26.502Z,16.75
2018-04-14T07:41:27.042Z,16.84
2018-04-14T07:42:26.809Z,16.84
2018-04-14T07:43:27.084Z,16.96
2018-04-14T07:44:27.109Z,17.12
2018-04-14T07:45:27.129Z,17.14
2018-04-14T07:46:27.151Z,17.22
2018-04-14T07:47:27.175Z,17.23
2018-04-14T07:48:27.191Z,17.23
2018-04-14T07:49:27.217Z,17.33
2018-04-14T07:50:27.243Z,17.29
2018-04-14T07:51:27.261Z,17.19
2018-04-14T07:52:27.023Z,17.26
2018-04-14T07:53:27.303Z,17.27
2018-04-14T07:54:27.119Z,17.34
2018-04-14T07:55:27.112Z,17.42
2018-04-14T07:56:27.115Z,17.46
2018-04-14T07:57:27.395Z,17.52
2018-04-14T07:58:27.417Z,17.49
2018-04-14T07:59:27.441Z,17.57
2018-04-14T08:00:27.459Z,17.57
2018-04-14T08:01:27.239Z,17.68
2018-04-14T08:02:27.249Z,17.68
2018-04-14T08:03:27.275Z,17.83
2018-04-14T08:04:27.582Z,17.97
2018-04-14T08:05:27.574Z,17.98
2018-04-14T08:06:27.590Z,18.13
2018-04-14T08:07:27.619Z,18.18
2018-04-14T08:08:27.647Z,18.31
2018-04-14T08:09:27.817Z,18.28
2018-04-14T08:10:27.433Z,18.37
2018-04-14T08:11:27.461Z,18.52
2018-04-14T08:12:27.734Z,18.47
2018-04-14T08:13:27.507Z,18.55
2018-04-14T08:14:27.766Z,18.56
2018-04-14T08:15:27.787Z,18.58
2018-04-14T08:16:27.558Z,18.56
2018-04-14T08:17:27.593Z,18.5
2018-04-14T08:18:28.027Z,18.7
2018-04-14T08:19:27.885Z,18.77
2018-04-14T08:20:27.903Z,18.84
2018-04-14T08:21:27.936Z,18.92
2018-04-14T08:22:27.700Z,18.99
2018-04-14T08:23:27.719Z,19.08
2018-04-14T08:24:28.060Z,19.14
2018-04-14T08:25:28.026Z,19.16
2018-04-14T08:26:28.065Z,19.14
2018-04-14T08:27:28.087Z,19
2018-04-14T08:28:27.852Z,19.16
2018-04-14T08:29:27.879Z,19.14
2018-04-14T08:30:27.902Z,19.16
2018-04-14T08:31:28.179Z,19.34
2018-04-14T08:32:27.694Z,19.27
2018-04-14T08:33:28.228Z,19.34
2018-04-14T08:34:27.838Z,19.37
2018-04-14T08:35:28.018Z,19.45
2018-04-14T08:36:28.042Z,19.48
2018-04-14T08:37:28.613Z,19.51
2018-04-14T08:38:28.343Z,19.59
2018-04-14T08:39:27.907Z,19.56
2018-04-14T08:40:28.389Z,19.7
2018-04-14T08:41:28.504Z,19.81
2018-04-14T08:42:28.440Z,19.67
2018-04-14T08:43:28.460Z,19.56
2018-04-14T08:44:28.490Z,19.63
2018-04-14T08:45:28.260Z,19.64
2018-04-14T08:46:28.535Z,19.63
2018-04-14T08:47:28.305Z,19.64
2018-04-14T08:48:28.067Z,19.64
2018-04-14T08:49:28.594Z,19.59
2018-04-14T08:50:28.374Z,19.56
2018-04-14T08:51:28.644Z,19.56
2018-04-14T08:52:28.676Z,19.62
2018-04-14T08:53:28.187Z,19.7
2018-04-14T08:54:28.765Z,19.76
2018-04-14T08:55:28.492Z,19.92
2018-04-14T08:56:28.953Z,20.1
2018-04-14T08:57:28.789Z,20.16
2018-04-14T08:58:28.811Z,20.22
2018-04-14T08:59:28.880Z,20.37
2018-04-14T09:00:28.870Z,20.36
2018-04-14T09:01:28.898Z,20.34
2018-04-14T09:02:28.928Z,20.41
2018-04-14T09:03:28.947Z,20.51
2018-04-14T09:04:28.716Z,20.41
2018-04-14T09:05:28.993Z,20.5
2018-04-14T09:06:29.021Z,20.66
2018-04-14T09:07:29.044Z,20.51
2018-04-14T09:08:28.811Z,20.58
2018-04-14T09:09:28.913Z,20.72
2018-04-14T09:10:29.116Z,20.81
2018-04-14T09:11:28.878Z,20.72
2018-04-14T09:12:28.914Z,20.9
2018-04-14T09:13:28.681Z,21.03
2018-04-14T09:14:28.962Z,21.18
2018-04-14T09:15:29.239Z,21.32
2018-04-14T09:16:29.259Z,21.27
2018-04-14T09:17:29.384Z,21.32
2018-04-14T09:18:29.059Z,21.27
2018-04-14T09:19:29.091Z,21.45
2018-04-14T09:20:29.369Z,21.5
2018-04-14T09:21:29.399Z,21.54
2018-04-14T09:22:29.415Z,21.5
2018-04-14T09:23:29.442Z,21.8
2018-04-14T09:24:29.265Z,21.98
2018-04-14T09:25:29.494Z,22.14
2018-04-14T09:26:29.661Z,22.45
2018-04-14T09:27:29.288Z,22.62
2018-04-14T09:28:29.576Z,22.87
2018-04-14T09:29:29.090Z,22.96
2018-04-14T09:30:29.628Z,23.12
2018-04-14T09:31:29.651Z,23
2018-04-14T09:32:29.679Z,23.03
2018-04-14T09:33:29.706Z,23.2
2018-04-14T09:34:29.585Z,23.44
2018-04-14T09:35:29.761Z,23.59
2018-04-14T09:36:29.784Z,23.65
2018-04-14T09:37:29.558Z,23.66
2018-04-14T09:38:29.593Z,23.76
2018-04-14T09:39:29.995Z,23.93
2018-04-14T09:40:29.902Z,24.14
2018-04-14T09:41:29.933Z,24.4
2018-04-14T09:42:29.963Z,24.74
2018-04-14T09:43:29.733Z,25.01
2018-04-14T09:44:30.034Z,25.28
2018-04-14T09:45:29.539Z,25.33
2018-04-14T09:46:29.818Z,25.28
2018-04-14T09:47:29.847Z,25.43
2018-04-14T09:48:30.132Z,25.36
2018-04-14T09:49:30.192Z,25.66
2018-04-14T09:50:29.685Z,25.8
2018-04-14T09:51:29.964Z,25.85
2018-04-14T09:52:30.244Z,25.9
2018-04-14T09:53:30.024Z,25.91
2018-04-14T09:54:30.358Z,25.84
2018-04-14T09:55:30.334Z,26.02
2018-04-14T09:56:30.290Z,26.29
2018-04-14T09:57:30.142Z,26.55
2018-04-14T09:58:30.435Z,26.4
2018-04-14T09:59:30.203Z,26.34
2018-04-14T10:00:30.489Z,26.44
2018-04-14T10:01:30.519Z,26.59
2018-04-14T10:02:30.550Z,26.6
2018-04-14T10:03:30.584Z,26.58
2018-04-14T10:04:30.387Z,26.68
2018-04-14T10:05:30.645Z,26.81
2018-04-14T10:06:30.427Z,27.14
2018-04-14T10:07:30.700Z,27.39
2018-04-14T10:08:30.481Z,27.25
2018-04-14T10:09:30.762Z,27.25
2018-04-14T10:10:30.892Z,27.32
2018-04-14T10:11:30.873Z,27.45
2018-04-14T10:12:30.858Z,27.75
2018-04-14T10:13:30.885Z,27.93
2018-04-14T10:14:30.665Z,27.8
2018-04-14T10:15:30.955Z,27.82
2018-04-14T10:16:31.030Z,27.98
2018-04-14T10:17:31.017Z,28.26
2018-04-14T10:18:31.042Z,28.38
2018-04-14T10:19:31.077Z,28.41
2018-04-14T10:20:31.112Z,28.66
2018-04-14T10:21:31.137Z,28.6
2018-04-14T10:22:31.167Z,28.47
2018-04-14T10:23:30.944Z,28.49
2018-04-14T10:24:31.224Z,28.52
2018-04-14T10:25:31.259Z,28.69
2018-04-14T10:26:31.037Z,28.7
2018-04-14T10:27:31.333Z,28.64
2018-04-14T10:28:31.100Z,28.81
2018-04-14T10:29:31.390Z,28.84
2018-04-14T10:30:31.424Z,28.74
2018-04-14T10:31:31.597Z,28.63
2018-04-14T10:32:31.489Z,28.39
2018-04-14T10:33:31.011Z,28.35
2018-04-14T10:34:31.566Z,28.52
2018-04-14T10:35:31.580Z,28.74
2018-04-14T10:36:31.614Z,28.59
2018-04-14T10:37:31.413Z,28.82
2018-04-14T10:38:31.678Z,28.91
2018-04-14T10:39:31.711Z,29.31
2018-04-14T10:40:31.761Z,29.23
2018-04-14T10:41:31.776Z,29.39
2018-04-14T10:42:31.818Z,29.68
2018-04-14T10:43:31.846Z,29.72
2018-04-14T10:44:31.615Z,29.87
2018-04-14T10:45:31.892Z,29.97
2018-04-14T10:46:31.973Z,30.03
2018-04-14T10:47:31.952Z,30.37
2018-04-14T10:48:31.739Z,30.63
2018-04-14T10:49:32.015Z,30.8
2018-04-14T10:50:32.054Z,30.84
2018-04-14T10:51:31.829Z,31.05
2018-04-14T10:52:31.612Z,31.05
2018-04-14T10:53:32.158Z,31.15
2018-04-14T10:54:32.199Z,31.17
2018-04-14T10:55:32.236Z,31.47
2018-04-14T10:56:32.262Z,31.74
2018-04-14T10:57:32.032Z,31.77
2018-04-14T10:58:32.067Z,31.46
2018-04-14T10:59:32.358Z,31.22
2018-04-14T11:00:31.874Z,31.03
2018-04-14T11:01:32.215Z,31.02
2018-04-14T11:02:32.194Z,31.17
2018-04-14T11:03:32.493Z,31.17
2018-04-14T11:04:32.529Z,31.34
2018-04-14T11:05:32.320Z,31.39
2018-04-14T11:06:32.083Z,31.44
2018-04-14T11:07:32.372Z,31.42
2018-04-14T11:08:32.660Z,31.56
2018-04-14T11:09:32.427Z,31.62
2018-04-14T11:10:32.468Z,31.96
2018-04-14T11:11:32.500Z,32.04
2018-04-14T11:12:32.788Z,31.96
2018-04-14T11:13:32.572Z,32.22
2018-04-14T11:14:32.844Z,32.43
2018-04-14T11:15:32.890Z,32.46
2018-04-14T11:16:32.719Z,32.38
2018-04-14T11:17:32.950Z,32.67
2018-04-14T11:18:32.745Z,32.87
2018-04-14T11:19:32.778Z,33.24
2018-04-14T11:20:33.254Z,33.57
2018-04-14T11:21:32.945Z,33.61
2018-04-14T11:22:32.878Z,33.65
2018-04-14T11:23:33.173Z,33.71
2018-04-14T11:24:33.206Z,33.73
2018-04-14T11:25:33.243Z,33.76
2018-04-14T11:26:32.766Z,33.95
2018-04-14T11:27:33.312Z,34.08
2018-04-14T11:28:33.090Z,33.8
2018-04-14T11:29:33.381Z,34.1
2018-04-14T11:30:33.157Z,34.14
2018-04-14T11:31:33.597Z,34.32
2018-04-14T11:32:33.477Z,34.48
2018-04-14T11:33:33.257Z,34.45
2018-04-14T11:34:33.296Z,34.47
2018-04-14T11:35:33.579Z,34.18
2018-04-14T11:36:33.112Z,34.13
2018-04-14T11:37:33.406Z,33.95
2018-04-14T11:38:33.685Z,33.81
2018-04-14T11:39:33.741Z,33.71
2018-04-14T11:40:33.507Z,34.01
2018-04-14T11:41:33.798Z,33.89
2018-04-14T11:42:33.580Z,34.14
2018-04-14T11:43:33.715Z,34.55
2018-04-14T11:44:33.639Z,34.88
2018-04-14T11:45:33.931Z,34.7
2018-04-14T11:46:34.266Z,35.08
2018-04-14T11:47:34.002Z,35.46
2018-04-14T11:48:34.037Z,35.7
2018-04-14T11:49:33.562Z,35.86
2018-04-14T11:50:34.108Z,35.92
2018-04-14T11:51:34.145Z,36.04
2018-04-14T11:52:34.176Z,36.33
2018-04-14T11:53:34.236Z,36.7
2018-04-14T11:54:34.242Z,36.42
2018-04-14T11:55:34.040Z,36.35
2018-04-14T11:56:34.328Z,36.37
2018-04-14T11:57:34.104Z,36.68
2018-04-14T11:58:34.145Z,37.07
2018-04-14T11:59:34.430Z,37.45
2018-04-14T12:00:34.462Z,37.4
2018-04-14T12:01:34.302Z,37.4
2018-04-14T12:02:34.279Z,37.72
2018-04-14T12:03:34.577Z,37.92
2018-04-14T12:04:34.612Z,37.86
2018-04-14T12:05:34.388Z,37.59
2018-04-14T12:06:34.672Z,37.86
2018-04-14T12:07:34.726Z,38.08
2018-04-14T12:08:34.763Z,38.08
2018-04-14T12:09:34.787Z,37.97
2018-04-14T12:10:34.815Z,38.23
2018-04-14T12:11:34.609Z,38.02
2018-04-14T12:12:34.892Z,37.92
2018-04-14T12:13:34.678Z,37.99
2018-04-14T12:14:34.712Z,38.31
2018-04-14T12:15:35.010Z,38.43
2018-04-14T12:16:35.090Z,38.62
2018-04-14T12:17:35.074Z,38.45
2018-04-14T12:18:35.113Z,38.57
2018-04-14T12:19:34.896Z,38.99
2018-04-14T12:20:35.186Z,39.18
2018-04-14T12:21:34.969Z,39.17
2018-04-14T12:22:35.002Z,39.15
2018-04-14T12:23:35.311Z,39.04
2018-04-14T12:24:35.077Z,39
2018-04-14T12:25:35.367Z,38.73
2018-04-14T12:26:35.145Z,38.8
2018-04-14T12:27:35.445Z,38.46
2018-04-14T12:28:35.470Z,38.54
2018-04-14T12:29:35.512Z,38.08
2018-04-14T12:30:35.291Z,37.65
2018-04-14T12:31:35.624Z,37.56
2018-04-14T12:32:35.369Z,37.11
2018-04-14T12:33:35.678Z,37.55
2018-04-14T12:34:35.713Z,38.09
2018-04-14T12:35:35.732Z,38.33
2018-04-14T12:36:35.562Z,38.33
2018-04-14T12:37:35.566Z,38.08
2018-04-14T12:38:35.838Z,38.26
2018-04-14T12:39:35.885Z,38.05
2018-04-14T12:40:35.922Z,37.92
2018-04-14T12:41:35.444Z,38.39
2018-04-14T12:42:35.984Z,38.2
2018-04-14T12:43:35.771Z,38.31
2018-04-14T12:44:36.063Z,38.48
2018-04-14T12:45:36.100Z,38.61
2018-04-14T12:46:36.135Z,38.97
2018-04-14T12:47:35.918Z,39.02
2018-04-14T12:48:36.209Z,38.99
2018-04-14T12:49:36.239Z,37.89
2018-04-14T12:50:36.274Z,38.04
2018-04-14T12:51:36.106Z,37.44
2018-04-14T12:52:36.091Z,37.83
2018-04-14T12:53:36.141Z,38.08
2018-04-14T12:54:36.173Z,38.61
2018-04-14T12:55:36.456Z,38.68
2018-04-14T12:56:36.246Z,38.31